sensor_id;sensor_type;location;lat;lon;timestamp;temperature;humidity
69393;SHT31;56582;44.624;20.378;2023-12-20T00:00:57;6.55;73.49
69393;SHT31;56582;44.624;20.378;2023-12-20T00:03:22;6.68;73.65
69393;SHT31;56582;44.624;20.378;2023-12-20T00:05:49;6.55;73.68
69393;SHT31;56582;44.624;20.378;2023-12-20T00:08:15;6.79;73.29
69393;SHT31;56582;44.624;20.378;2023-12-20T00:10:41;6.84;73.04
69393;SHT31;56582;44.624;20.378;2023-12-20T00:13:07;6.59;73.47
69393;SHT31;56582;44.624;20.378;2023-12-20T00:15:33;6.31;74.58
69393;SHT31;56582;44.624;20.378;2023-12-20T00:17:59;5.85;76.24
69393;SHT31;56582;44.624;20.378;2023-12-20T00:20:24;5.82;76.47
69393;SHT31;56582;44.624;20.378;2023-12-20T00:22:50;5.79;76.54
69393;SHT31;56582;44.624;20.378;2023-12-20T00:25:15;5.78;76.50
69393;SHT31;56582;44.624;20.378;2023-12-20T00:27:41;5.90;76.67
69393;SHT31;56582;44.624;20.378;2023-12-20T00:30:07;5.96;76.21
69393;SHT31;56582;44.624;20.378;2023-12-20T00:32:33;6.16;76.66
69393;SHT31;56582;44.624;20.378;2023-12-20T00:34:58;6.20;75.66
69393;SHT31;56582;44.624;20.378;2023-12-20T00:37:24;6.05;75.72
69393;SHT31;56582;44.624;20.378;2023-12-20T00:39:49;5.92;76.17
69393;SHT31;56582;44.624;20.378;2023-12-20T00:42:15;5.69;76.51
69393;SHT31;56582;44.624;20.378;2023-12-20T00:44:40;5.69;76.72
69393;SHT31;56582;44.624;20.378;2023-12-20T00:47:06;5.52;76.83
69393;SHT31;56582;44.624;20.378;2023-12-20T00:49:32;5.56;77.10
69393;SHT31;56582;44.624;20.378;2023-12-20T00:51:57;5.68;76.82
69393;SHT31;56582;44.624;20.378;2023-12-20T00:54:23;5.85;76.26
69393;SHT31;56582;44.624;20.378;2023-12-20T00:56:48;6.02;75.75
69393;SHT31;56582;44.624;20.378;2023-12-20T00:59:16;6.34;74.69
69393;SHT31;56582;44.624;20.378;2023-12-20T01:01:41;6.33;74.49
69393;SHT31;56582;44.624;20.378;2023-12-20T01:04:07;6.37;74.42
69393;SHT31;56582;44.624;20.378;2023-12-20T01:06:33;6.47;73.81
69393;SHT31;56582;44.624;20.378;2023-12-20T01:08:58;6.49;73.59
69393;SHT31;56582;44.624;20.378;2023-12-20T01:11:24;6.45;73.65
69393;SHT31;56582;44.624;20.378;2023-12-20T01:13:49;6.49;73.55
69393;SHT31;56582;44.624;20.378;2023-12-20T01:16:15;6.27;73.91
69393;SHT31;56582;44.624;20.378;2023-12-20T01:18:40;6.37;73.72
69393;SHT31;56582;44.624;20.378;2023-12-20T01:21:06;6.34;73.45
69393;SHT31;56582;44.624;20.378;2023-12-20T01:23:32;6.23;73.44
69393;SHT31;56582;44.624;20.378;2023-12-20T01:25:59;6.28;73.38
69393;SHT31;56582;44.624;20.378;2023-12-20T01:28:28;6.37;72.66
69393;SHT31;56582;44.624;20.378;2023-12-20T01:30:53;6.45;72.09
69393;SHT31;56582;44.624;20.378;2023-12-20T01:33:19;6.65;71.47
69393;SHT31;56582;44.624;20.378;2023-12-20T01:35:44;6.75;70.74
69393;SHT31;56582;44.624;20.378;2023-12-20T01:38:10;6.76;70.71
69393;SHT31;56582;44.624;20.378;2023-12-20T01:40:35;6.93;70.22
69393;SHT31;56582;44.624;20.378;2023-12-20T01:43:08;6.84;70.34
69393;SHT31;56582;44.624;20.378;2023-12-20T01:45:34;6.86;70.29
69393;SHT31;56582;44.624;20.378;2023-12-20T01:48:00;6.84;70.53
69393;SHT31;56582;44.624;20.378;2023-12-20T01:50:28;6.72;70.78
69393;SHT31;56582;44.624;20.378;2023-12-20T01:52:55;6.59;71.29
69393;SHT31;56582;44.624;20.378;2023-12-20T01:55:23;6.72;70.84
69393;SHT31;56582;44.624;20.378;2023-12-20T01:57:50;6.82;70.40
69393;SHT31;56582;44.624;20.378;2023-12-20T02:00:17;6.99;69.72
69393;SHT31;56582;44.624;20.378;2023-12-20T02:02:44;7.05;69.31
69393;SHT31;56582;44.624;20.378;2023-12-20T02:05:10;6.88;69.55
69393;SHT31;56582;44.624;20.378;2023-12-20T02:07:36;6.79;69.86
69393;SHT31;56582;44.624;20.378;2023-12-20T02:10:02;6.69;70.21
69393;SHT31;56582;44.624;20.378;2023-12-20T02:12:29;6.78;70.10
69393;SHT31;56582;44.624;20.378;2023-12-20T02:14:55;6.92;69.38
69393;SHT31;56582;44.624;20.378;2023-12-20T02:17:22;6.96;69.03
69393;SHT31;56582;44.624;20.378;2023-12-20T02:19:47;6.97;69.13
69393;SHT31;56582;44.624;20.378;2023-12-20T02:22:13;7.00;68.89
69393;SHT31;56582;44.624;20.378;2023-12-20T02:24:39;7.03;68.66
69393;SHT31;56582;44.624;20.378;2023-12-20T02:27:06;7.07;68.68
69393;SHT31;56582;44.624;20.378;2023-12-20T02:29:33;7.16;68.37
69393;SHT31;56582;44.624;20.378;2023-12-20T02:31:59;6.99;68.62
69393;SHT31;56582;44.624;20.378;2023-12-20T02:34:24;7.15;68.30
69393;SHT31;56582;44.624;20.378;2023-12-20T02:36:50;7.17;68.33
69393;SHT31;56582;44.624;20.378;2023-12-20T02:39:16;7.31;67.76
69393;SHT31;56582;44.624;20.378;2023-12-20T02:41:42;7.10;68.37
69393;SHT31;56582;44.624;20.378;2023-12-20T02:44:07;6.92;69.11
69393;SHT31;56582;44.624;20.378;2023-12-20T02:46:33;7.10;68.57
69393;SHT31;56582;44.624;20.378;2023-12-20T02:48:58;7.09;68.42
69393;SHT31;56582;44.624;20.378;2023-12-20T02:51:24;7.09;68.53
69393;SHT31;56582;44.624;20.378;2023-12-20T02:53:49;6.96;68.73
69393;SHT31;56582;44.624;20.378;2023-12-20T02:56:15;6.96;69.02
69393;SHT31;56582;44.624;20.378;2023-12-20T02:58:40;6.85;69.45
69393;SHT31;56582;44.624;20.378;2023-12-20T03:01:06;6.75;69.73
69393;SHT31;56582;44.624;20.378;2023-12-20T03:03:32;6.67;69.92
69393;SHT31;56582;44.624;20.378;2023-12-20T03:05:57;6.58;70.29
69393;SHT31;56582;44.624;20.378;2023-12-20T03:08:23;6.52;70.67
69393;SHT31;56582;44.624;20.378;2023-12-20T03:10:49;6.48;70.92
69393;SHT31;56582;44.624;20.378;2023-12-20T03:13:15;6.47;71.62
69393;SHT31;56582;44.624;20.378;2023-12-20T03:15:40;6.41;71.30
69393;SHT31;56582;44.624;20.378;2023-12-20T03:18:06;6.51;70.88
69393;SHT31;56582;44.624;20.378;2023-12-20T03:20:31;6.42;70.84
69393;SHT31;56582;44.624;20.378;2023-12-20T03:23:00;6.49;70.54
69393;SHT31;56582;44.624;20.378;2023-12-20T03:25:26;6.51;70.27
69393;SHT31;56582;44.624;20.378;2023-12-20T03:27:52;6.41;70.42
69393;SHT31;56582;44.624;20.378;2023-12-20T03:30:18;6.33;70.92
69393;SHT31;56582;44.624;20.378;2023-12-20T03:32:44;6.40;70.36
69393;SHT31;56582;44.624;20.378;2023-12-20T03:35:10;6.38;70.16
69393;SHT31;56582;44.624;20.378;2023-12-20T03:37:36;6.44;70.30
69393;SHT31;56582;44.624;20.378;2023-12-20T03:40:02;6.42;70.09
69393;SHT31;56582;44.624;20.378;2023-12-20T03:42:28;6.49;69.97
69393;SHT31;56582;44.624;20.378;2023-12-20T03:44:53;6.54;69.77
69393;SHT31;56582;44.624;20.378;2023-12-20T03:47:18;6.44;70.12
69393;SHT31;56582;44.624;20.378;2023-12-20T03:49:44;6.42;69.75
69393;SHT31;56582;44.624;20.378;2023-12-20T03:52:09;6.41;69.71
69393;SHT31;56582;44.624;20.378;2023-12-20T03:54:35;6.42;69.69
69393;SHT31;56582;44.624;20.378;2023-12-20T03:57:01;6.40;69.85
69393;SHT31;56582;44.624;20.378;2023-12-20T03:59:27;6.47;69.53
69393;SHT31;56582;44.624;20.378;2023-12-20T04:01:52;6.36;69.54
69393;SHT31;56582;44.624;20.378;2023-12-20T04:04:18;6.30;69.77
69393;SHT31;56582;44.624;20.378;2023-12-20T04:06:44;6.36;69.54
69393;SHT31;56582;44.624;20.378;2023-12-20T04:09:09;6.26;69.76
69393;SHT31;56582;44.624;20.378;2023-12-20T04:11:35;6.27;69.48
69393;SHT31;56582;44.624;20.378;2023-12-20T04:14:01;6.41;69.18
69393;SHT31;56582;44.624;20.378;2023-12-20T04:16:27;6.54;68.75
69393;SHT31;56582;44.624;20.378;2023-12-20T04:18:52;6.51;68.48
69393;SHT31;56582;44.624;20.378;2023-12-20T04:21:18;6.42;68.57
69393;SHT31;56582;44.624;20.378;2023-12-20T04:23:43;6.47;68.52
69393;SHT31;56582;44.624;20.378;2023-12-20T04:26:10;6.49;69.21
69393;SHT31;56582;44.624;20.378;2023-12-20T04:28:35;6.69;79.44
69393;SHT31;56582;44.624;20.378;2023-12-20T04:31:01;6.54;69.56
69393;SHT31;56582;44.624;20.378;2023-12-20T04:33:26;6.40;69.04
69393;SHT31;56582;44.624;20.378;2023-12-20T04:35:52;6.45;68.86
69393;SHT31;56582;44.624;20.378;2023-12-20T04:38:18;6.49;68.63
69393;SHT31;56582;44.624;20.378;2023-12-20T04:40:43;7.50;91.63
69393;SHT31;56582;44.624;20.378;2023-12-20T04:43:09;8.78;94.93
69393;SHT31;56582;44.624;20.378;2023-12-20T04:45:35;9.77;91.33
69393;SHT31;56582;44.624;20.378;2023-12-20T04:48:01;10.39;87.91
69393;SHT31;56582;44.624;20.378;2023-12-20T04:50:27;10.87;84.31
69393;SHT31;56582;44.624;20.378;2023-12-20T04:52:52;11.03;81.01
69393;SHT31;56582;44.624;20.378;2023-12-20T04:55:17;9.70;62.91
69393;SHT31;56582;44.624;20.378;2023-12-20T04:57:43;8.97;64.44
69393;SHT31;56582;44.624;20.378;2023-12-20T05:00:09;8.19;65.10
69393;SHT31;56582;44.624;20.378;2023-12-20T05:02:37;8.25;65.62
69393;SHT31;56582;44.624;20.378;2023-12-20T05:05:03;8.23;65.48
69393;SHT31;56582;44.624;20.378;2023-12-20T05:07:29;8.05;65.38
69393;SHT31;56582;44.624;20.378;2023-12-20T05:09:54;8.21;65.33
69393;SHT31;56582;44.624;20.378;2023-12-20T05:12:20;8.21;64.81
69393;SHT31;56582;44.624;20.378;2023-12-20T05:14:46;8.28;64.26
69393;SHT31;56582;44.624;20.378;2023-12-20T05:17:11;8.25;64.34
69393;SHT31;56582;44.624;20.378;2023-12-20T05:19:37;8.28;64.63
69393;SHT31;56582;44.624;20.378;2023-12-20T05:22:03;8.22;64.69
69393;SHT31;56582;44.624;20.378;2023-12-20T05:24:28;8.19;64.50
69393;SHT31;56582;44.624;20.378;2023-12-20T05:26:54;8.21;64.63
69393;SHT31;56582;44.624;20.378;2023-12-20T05:29:20;8.22;64.78
69393;SHT31;56582;44.624;20.378;2023-12-20T05:31:45;8.22;65.00
69393;SHT31;56582;44.624;20.378;2023-12-20T05:34:11;8.22;64.90
69393;SHT31;56582;44.624;20.378;2023-12-20T05:36:37;8.09;64.80
69393;SHT31;56582;44.624;20.378;2023-12-20T05:39:03;7.88;65.31
69393;SHT31;56582;44.624;20.378;2023-12-20T05:41:33;7.96;65.75
69393;SHT31;56582;44.624;20.378;2023-12-20T05:43:58;7.78;66.18
69393;SHT31;56582;44.624;20.378;2023-12-20T05:46:25;7.77;65.91
69393;SHT31;56582;44.624;20.378;2023-12-20T05:48:51;7.58;66.72
69393;SHT31;56582;44.624;20.378;2023-12-20T05:51:19;7.63;66.68
69393;SHT31;56582;44.624;20.378;2023-12-20T05:53:44;7.70;66.90
69393;SHT31;56582;44.624;20.378;2023-12-20T05:56:10;7.65;66.98
69393;SHT31;56582;44.624;20.378;2023-12-20T05:58:36;7.57;66.90
69393;SHT31;56582;44.624;20.378;2023-12-20T06:01:05;7.54;67.11
69393;SHT31;56582;44.624;20.378;2023-12-20T06:03:31;7.42;67.65
69393;SHT31;56582;44.624;20.378;2023-12-20T06:05:56;7.09;68.81
69393;SHT31;56582;44.624;20.378;2023-12-20T06:08:22;6.88;69.50
69393;SHT31;56582;44.624;20.378;2023-12-20T06:10:48;6.72;69.65
69393;SHT31;56582;44.624;20.378;2023-12-20T06:13:13;6.54;69.88
69393;SHT31;56582;44.624;20.378;2023-12-20T06:15:39;6.49;70.06
69393;SHT31;56582;44.624;20.378;2023-12-20T06:18:05;6.44;70.30
69393;SHT31;56582;44.624;20.378;2023-12-20T06:20:32;6.59;70.13
69393;SHT31;56582;44.624;20.378;2023-12-20T06:22:57;6.68;70.06
69393;SHT31;56582;44.624;20.378;2023-12-20T06:25:23;6.59;69.69
69393;SHT31;56582;44.624;20.378;2023-12-20T06:27:48;6.65;69.38
69393;SHT31;56582;44.624;20.378;2023-12-20T06:30:15;6.76;69.25
69393;SHT31;56582;44.624;20.378;2023-12-20T06:32:41;6.89;69.09
69393;SHT31;56582;44.624;20.378;2023-12-20T06:35:08;7.05;69.48
69393;SHT31;56582;44.624;20.378;2023-12-20T06:37:34;6.95;69.14
69393;SHT31;56582;44.624;20.378;2023-12-20T06:39:59;7.05;69.21
69393;SHT31;56582;44.624;20.378;2023-12-20T06:42:25;7.03;69.38
69393;SHT31;56582;44.624;20.378;2023-12-20T06:44:50;6.89;69.09
69393;SHT31;56582;44.624;20.378;2023-12-20T06:47:16;6.75;69.39
69393;SHT31;56582;44.624;20.378;2023-12-20T06:49:41;6.89;69.27
69393;SHT31;56582;44.624;20.378;2023-12-20T06:52:07;6.91;68.64
69393;SHT31;56582;44.624;20.378;2023-12-20T06:54:32;6.96;68.18
69393;SHT31;56582;44.624;20.378;2023-12-20T06:57:00;7.07;68.13
69393;SHT31;56582;44.624;20.378;2023-12-20T06:59:25;7.10;68.48
69393;SHT31;56582;44.624;20.378;2023-12-20T07:01:51;7.00;68.22
69393;SHT31;56582;44.624;20.378;2023-12-20T07:04:17;6.89;68.63
69393;SHT31;56582;44.624;20.378;2023-12-20T07:06:51;6.97;68.62
69393;SHT31;56582;44.624;20.378;2023-12-20T07:09:17;7.03;68.55
69393;SHT31;56582;44.624;20.378;2023-12-20T07:11:42;7.19;68.79
69393;SHT31;56582;44.624;20.378;2023-12-20T07:14:08;7.28;68.44
69393;SHT31;56582;44.624;20.378;2023-12-20T07:16:34;7.37;68.53
69393;SHT31;56582;44.624;20.378;2023-12-20T07:19:00;7.43;68.28
69393;SHT31;56582;44.624;20.378;2023-12-20T07:21:25;7.50;68.17
69393;SHT31;56582;44.624;20.378;2023-12-20T07:23:51;7.53;67.81
69393;SHT31;56582;44.624;20.378;2023-12-20T07:26:17;7.48;68.41
69393;SHT31;56582;44.624;20.378;2023-12-20T07:28:42;7.54;69.00
69393;SHT31;56582;44.624;20.378;2023-12-20T07:31:08;7.65;68.40
69393;SHT31;56582;44.624;20.378;2023-12-20T07:33:33;7.54;68.43
69393;SHT31;56582;44.624;20.378;2023-12-20T07:35:59;7.51;69.49
69393;SHT31;56582;44.624;20.378;2023-12-20T07:38:26;7.28;71.90
69393;SHT31;56582;44.624;20.378;2023-12-20T07:40:52;7.24;69.87
69393;SHT31;56582;44.624;20.378;2023-12-20T07:43:17;7.12;70.57
69393;SHT31;56582;44.624;20.378;2023-12-20T07:45:43;7.00;71.95
69393;SHT31;56582;44.624;20.378;2023-12-20T07:48:09;6.88;71.46
69393;SHT31;56582;44.624;20.378;2023-12-20T07:50:34;7.05;71.29
69393;SHT31;56582;44.624;20.378;2023-12-20T07:53:00;6.82;72.18
69393;SHT31;56582;44.624;20.378;2023-12-20T07:55:27;6.86;71.32
69393;SHT31;56582;44.624;20.378;2023-12-20T07:57:52;6.88;71.56
69393;SHT31;56582;44.624;20.378;2023-12-20T08:00:18;7.05;71.89
69393;SHT31;56582;44.624;20.378;2023-12-20T08:02:44;6.99;71.78
69393;SHT31;56582;44.624;20.378;2023-12-20T08:05:10;7.10;72.19
69393;SHT31;56582;44.624;20.378;2023-12-20T08:07:36;7.19;70.46
69393;SHT31;56582;44.624;20.378;2023-12-20T08:10:01;7.27;70.87
69393;SHT31;56582;44.624;20.378;2023-12-20T08:12:27;7.33;71.09
69393;SHT31;56582;44.624;20.378;2023-12-20T08:14:53;7.28;70.86
69393;SHT31;56582;44.624;20.378;2023-12-20T08:17:19;7.37;69.96
69393;SHT31;56582;44.624;20.378;2023-12-20T08:19:45;7.51;70.74
69393;SHT31;56582;44.624;20.378;2023-12-20T08:22:11;7.61;69.63
69393;SHT31;56582;44.624;20.378;2023-12-20T08:24:37;7.81;69.50
69393;SHT31;56582;44.624;20.378;2023-12-20T08:27:04;7.86;69.94
69393;SHT31;56582;44.624;20.378;2023-12-20T08:29:30;7.84;69.09
69393;SHT31;56582;44.624;20.378;2023-12-20T08:31:56;7.85;68.94
69393;SHT31;56582;44.624;20.378;2023-12-20T08:34:22;7.98;69.58
69393;SHT31;56582;44.624;20.378;2023-12-20T08:36:50;8.03;69.67
69393;SHT31;56582;44.624;20.378;2023-12-20T08:39:17;8.09;69.38
69393;SHT31;56582;44.624;20.378;2023-12-20T08:41:42;8.17;69.49
69393;SHT31;56582;44.624;20.378;2023-12-20T08:44:09;8.22;68.45
69393;SHT31;56582;44.624;20.378;2023-12-20T08:46:34;8.36;69.32
69393;SHT31;56582;44.624;20.378;2023-12-20T08:49:00;8.47;68.40
69393;SHT31;56582;44.624;20.378;2023-12-20T08:51:26;8.42;69.37
69393;SHT31;56582;44.624;20.378;2023-12-20T08:53:52;8.60;68.47
69393;SHT31;56582;44.624;20.378;2023-12-20T08:56:17;8.63;68.56
69393;SHT31;56582;44.624;20.378;2023-12-20T08:58:44;8.77;68.26
69393;SHT31;56582;44.624;20.378;2023-12-20T09:01:09;8.87;67.54
69393;SHT31;56582;44.624;20.378;2023-12-20T09:03:35;8.94;67.69
69393;SHT31;56582;44.624;20.378;2023-12-20T09:06:00;8.95;68.08
69393;SHT31;56582;44.624;20.378;2023-12-20T09:08:26;8.98;66.62
69393;SHT31;56582;44.624;20.378;2023-12-20T09:10:52;9.04;68.62
69393;SHT31;56582;44.624;20.378;2023-12-20T09:13:17;9.08;68.55
69393;SHT31;56582;44.624;20.378;2023-12-20T09:15:43;9.29;68.31
69393;SHT31;56582;44.624;20.378;2023-12-20T09:18:08;9.36;68.06
69393;SHT31;56582;44.624;20.378;2023-12-20T09:20:34;9.29;67.82
69393;SHT31;56582;44.624;20.378;2023-12-20T09:23:00;9.25;68.32
69393;SHT31;56582;44.624;20.378;2023-12-20T09:25:25;9.29;68.01
69393;SHT31;56582;44.624;20.378;2023-12-20T09:27:52;9.38;67.99
69393;SHT31;56582;44.624;20.378;2023-12-20T09:30:18;9.46;67.58
69393;SHT31;56582;44.624;20.378;2023-12-20T09:32:44;9.44;67.33
69393;SHT31;56582;44.624;20.378;2023-12-20T09:35:10;9.42;67.35
69393;SHT31;56582;44.624;20.378;2023-12-20T09:37:35;9.40;66.92
69393;SHT31;56582;44.624;20.378;2023-12-20T09:40:01;8.94;67.04
69393;SHT31;56582;44.624;20.378;2023-12-20T09:42:38;8.94;67.09
69393;SHT31;56582;44.624;20.378;2023-12-20T09:45:08;9.32;67.40
69393;SHT31;56582;44.624;20.378;2023-12-20T09:47:35;9.47;65.49
69393;SHT31;56582;44.624;20.378;2023-12-20T09:50:02;9.35;65.76
69393;SHT31;56582;44.624;20.378;2023-12-20T09:52:28;9.28;65.50
69393;SHT31;56582;44.624;20.378;2023-12-20T09:54:55;9.47;65.45
69393;SHT31;56582;44.624;20.378;2023-12-20T09:57:22;9.18;66.23
69393;SHT31;56582;44.624;20.378;2023-12-20T09:59:47;9.05;66.99
69393;SHT31;56582;44.624;20.378;2023-12-20T10:02:13;9.12;67.06
69393;SHT31;56582;44.624;20.378;2023-12-20T10:04:46;9.02;67.50
69393;SHT31;56582;44.624;20.378;2023-12-20T10:07:13;9.07;67.95
69393;SHT31;56582;44.624;20.378;2023-12-20T10:09:38;9.38;68.06
69393;SHT31;56582;44.624;20.378;2023-12-20T10:12:05;9.50;67.93
69393;SHT31;56582;44.624;20.378;2023-12-20T10:14:32;9.52;66.81
69393;SHT31;56582;44.624;20.378;2023-12-20T10:17:04;9.73;67.57
69393;SHT31;56582;44.624;20.378;2023-12-20T10:19:30;9.71;67.07
69393;SHT31;56582;44.624;20.378;2023-12-20T10:21:58;9.60;67.81
69393;SHT31;56582;44.624;20.378;2023-12-20T10:24:24;9.60;67.90
69393;SHT31;56582;44.624;20.378;2023-12-20T10:27:04;9.70;68.12
69393;SHT31;56582;44.624;20.378;2023-12-20T10:29:36;9.52;68.04
69393;SHT31;56582;44.624;20.378;2023-12-20T10:32:26;9.66;68.13
69393;SHT31;56582;44.624;20.378;2023-12-20T10:34:55;9.40;69.01
69393;SHT31;56582;44.624;20.378;2023-12-20T10:37:21;9.42;69.01
69393;SHT31;56582;44.624;20.378;2023-12-20T10:39:52;9.23;69.74
69393;SHT31;56582;44.624;20.378;2023-12-20T10:42:27;9.28;70.54
69393;SHT31;56582;44.624;20.378;2023-12-20T10:44:54;9.28;71.06
69393;SHT31;56582;44.624;20.378;2023-12-20T10:47:20;9.52;71.30
69393;SHT31;56582;44.624;20.378;2023-12-20T10:49:45;9.70;70.86
69393;SHT31;56582;44.624;20.378;2023-12-20T10:52:12;9.42;70.80
69393;SHT31;56582;44.624;20.378;2023-12-20T10:54:41;9.52;70.90
69393;SHT31;56582;44.624;20.378;2023-12-20T10:57:07;9.36;70.64
69393;SHT31;56582;44.624;20.378;2023-12-20T10:59:39;9.02;71.10
69393;SHT31;56582;44.624;20.378;2023-12-20T11:02:05;8.88;71.96
69393;SHT31;56582;44.624;20.378;2023-12-20T11:04:59;9.23;70.81
69393;SHT31;56582;44.624;20.378;2023-12-20T11:10:37;8.94;70.73
69393;SHT31;56582;44.624;20.378;2023-12-20T11:13:23;8.70;70.83
69393;SHT31;56582;44.624;20.378;2023-12-20T11:15:51;8.28;72.18
69393;SHT31;56582;44.624;20.378;2023-12-20T11:18:17;8.13;71.77
69393;SHT31;56582;44.624;20.378;2023-12-20T11:20:43;8.03;72.23
69393;SHT31;56582;44.624;20.378;2023-12-20T11:23:09;8.10;72.20
69393;SHT31;56582;44.624;20.378;2023-12-20T11:28:14;8.47;71.03
69393;SHT31;56582;44.624;20.378;2023-12-20T11:30:45;8.23;71.15
69393;SHT31;56582;44.624;20.378;2023-12-20T11:33:12;8.43;71.35
69393;SHT31;56582;44.624;20.378;2023-12-20T11:35:39;8.60;71.74
69393;SHT31;56582;44.624;20.378;2023-12-20T11:38:08;8.54;70.80
69393;SHT31;56582;44.624;20.378;2023-12-20T11:40:35;8.01;71.68
69393;SHT31;56582;44.624;20.378;2023-12-20T11:43:01;8.25;71.27
69393;SHT31;56582;44.624;20.378;2023-12-20T11:45:27;8.54;71.39
69393;SHT31;56582;44.624;20.378;2023-12-20T11:47:53;8.75;70.79
69393;SHT31;56582;44.624;20.378;2023-12-20T11:50:20;8.94;70.23
69393;SHT31;56582;44.624;20.378;2023-12-20T11:52:47;8.78;70.23
69393;SHT31;56582;44.624;20.378;2023-12-20T11:55:13;8.81;70.17
69393;SHT31;56582;44.624;20.378;2023-12-20T11:57:38;8.85;70.38
69393;SHT31;56582;44.624;20.378;2023-12-20T12:00:05;8.81;69.74
69393;SHT31;56582;44.624;20.378;2023-12-20T12:02:32;8.77;70.19
69393;SHT31;56582;44.624;20.378;2023-12-20T12:04:57;8.92;70.11
69393;SHT31;56582;44.624;20.378;2023-12-20T12:07:24;8.82;70.27
69393;SHT31;56582;44.624;20.378;2023-12-20T12:09:51;8.68;70.58
69393;SHT31;56582;44.624;20.378;2023-12-20T12:12:17;8.63;71.24
69393;SHT31;56582;44.624;20.378;2023-12-20T12:14:44;8.74;70.90
69393;SHT31;56582;44.624;20.378;2023-12-20T12:17:14;8.59;71.42
69393;SHT31;56582;44.624;20.378;2023-12-20T12:19:43;8.68;71.08
69393;SHT31;56582;44.624;20.378;2023-12-20T12:24:46;8.52;72.15
69393;SHT31;56582;44.624;20.378;2023-12-20T12:27:13;8.50;72.16
69393;SHT31;56582;44.624;20.378;2023-12-20T12:29:39;8.59;72.50
69393;SHT31;56582;44.624;20.378;2023-12-20T12:32:08;8.88;71.73
69393;SHT31;56582;44.624;20.378;2023-12-20T12:34:34;8.46;72.43
69393;SHT31;56582;44.624;20.378;2023-12-20T12:37:00;8.65;72.95
69393;SHT31;56582;44.624;20.378;2023-12-20T12:39:26;8.78;72.17
69393;SHT31;56582;44.624;20.378;2023-12-20T12:41:52;8.95;72.81
69393;SHT31;56582;44.624;20.378;2023-12-20T12:44:17;9.21;71.85
69393;SHT31;56582;44.624;20.378;2023-12-20T12:46:44;9.25;71.67
69393;SHT31;56582;44.624;20.378;2023-12-20T12:49:10;9.22;69.65
69393;SHT31;56582;44.624;20.378;2023-12-20T12:51:35;9.16;69.75
69393;SHT31;56582;44.624;20.378;2023-12-20T12:54:01;9.22;70.33
69393;SHT31;56582;44.624;20.378;2023-12-20T12:56:27;9.12;69.83
69393;SHT31;56582;44.624;20.378;2023-12-20T12:58:52;9.18;70.07
69393;SHT31;56582;44.624;20.378;2023-12-20T13:01:18;8.95;70.92
69393;SHT31;56582;44.624;20.378;2023-12-20T13:03:43;8.85;71.00
69393;SHT31;56582;44.624;20.378;2023-12-20T13:06:09;8.73;71.75
69393;SHT31;56582;44.624;20.378;2023-12-20T13:08:35;8.95;71.85
69393;SHT31;56582;44.624;20.378;2023-12-20T13:11:00;8.60;72.24
69393;SHT31;56582;44.624;20.378;2023-12-20T13:13:29;8.26;73.12
69393;SHT31;56582;44.624;20.378;2023-12-20T13:15:55;8.10;74.08
69393;SHT31;56582;44.624;20.378;2023-12-20T13:18:21;8.03;74.60
69393;SHT31;56582;44.624;20.378;2023-12-20T13:20:47;8.07;74.93
69393;SHT31;56582;44.624;20.378;2023-12-20T13:23:13;7.96;75.14
69393;SHT31;56582;44.624;20.378;2023-12-20T13:25:39;7.99;75.52
69393;SHT31;56582;44.624;20.378;2023-12-20T13:28:05;7.95;76.21
69393;SHT31;56582;44.624;20.378;2023-12-20T13:30:31;8.13;75.53
69393;SHT31;56582;44.624;20.378;2023-12-20T13:32:56;7.99;75.83
69393;SHT31;56582;44.624;20.378;2023-12-20T13:35:22;7.91;76.89
69393;SHT31;56582;44.624;20.378;2023-12-20T13:37:47;7.51;77.90
69393;SHT31;56582;44.624;20.378;2023-12-20T13:40:13;7.68;77.78
69393;SHT31;56582;44.624;20.378;2023-12-20T13:42:39;7.40;78.57
69393;SHT31;56582;44.624;20.378;2023-12-20T13:45:06;7.24;79.71
69393;SHT31;56582;44.624;20.378;2023-12-20T13:47:32;7.27;80.03
69393;SHT31;56582;44.624;20.378;2023-12-20T13:49:58;7.47;78.98
69393;SHT31;56582;44.624;20.378;2023-12-20T13:52:23;7.47;79.20
69393;SHT31;56582;44.624;20.378;2023-12-20T13:54:49;7.55;78.93
69393;SHT31;56582;44.624;20.378;2023-12-20T13:57:14;7.40;79.32
69393;SHT31;56582;44.624;20.378;2023-12-20T13:59:40;7.26;80.07
69393;SHT31;56582;44.624;20.378;2023-12-20T14:02:05;7.07;80.69
69393;SHT31;56582;44.624;20.378;2023-12-20T14:04:31;7.27;79.93
69393;SHT31;56582;44.624;20.378;2023-12-20T14:06:57;7.51;79.28
69393;SHT31;56582;44.624;20.378;2023-12-20T14:09:23;7.19;79.75
69393;SHT31;56582;44.624;20.378;2023-12-20T14:11:48;7.15;80.13
69393;SHT31;56582;44.624;20.378;2023-12-20T14:14:14;7.10;79.76
69393;SHT31;56582;44.624;20.378;2023-12-20T14:16:39;6.81;80.69
69393;SHT31;56582;44.624;20.378;2023-12-20T14:19:05;7.02;80.04
69393;SHT31;56582;44.624;20.378;2023-12-20T14:21:33;7.16;79.55
69393;SHT31;56582;44.624;20.378;2023-12-20T14:23:58;7.03;79.39
69393;SHT31;56582;44.624;20.378;2023-12-20T14:26:24;6.95;79.83
69393;SHT31;56582;44.624;20.378;2023-12-20T14:28:50;6.63;81.16
69393;SHT31;56582;44.624;20.378;2023-12-20T14:31:15;6.57;81.46
69393;SHT31;56582;44.624;20.378;2023-12-20T14:33:41;6.59;81.55
69393;SHT31;56582;44.624;20.378;2023-12-20T14:36:08;6.44;81.57
69393;SHT31;56582;44.624;20.378;2023-12-20T14:38:34;6.58;81.46
69393;SHT31;56582;44.624;20.378;2023-12-20T14:41:00;6.11;82.65
69393;SHT31;56582;44.624;20.378;2023-12-20T14:43:28;6.03;83.38
69393;SHT31;56582;44.624;20.378;2023-12-20T14:45:54;6.09;83.42
69393;SHT31;56582;44.624;20.378;2023-12-20T14:48:19;5.99;83.39
69393;SHT31;56582;44.624;20.378;2023-12-20T14:50:46;6.09;83.31
69393;SHT31;56582;44.624;20.378;2023-12-20T14:53:13;5.93;83.34
69393;SHT31;56582;44.624;20.378;2023-12-20T14:55:41;5.96;83.43
69393;SHT31;56582;44.624;20.378;2023-12-20T14:58:07;5.75;84.05
69393;SHT31;56582;44.624;20.378;2023-12-20T15:00:33;5.44;85.52
69393;SHT31;56582;44.624;20.378;2023-12-20T15:02:59;5.49;85.22
69393;SHT31;56582;44.624;20.378;2023-12-20T15:05:24;5.11;86.60
69393;SHT31;56582;44.624;20.378;2023-12-20T15:07:50;5.08;86.90
69393;SHT31;56582;44.624;20.378;2023-12-20T15:10:15;4.87;87.88
69393;SHT31;56582;44.624;20.378;2023-12-20T15:12:42;4.93;88.08
69393;SHT31;56582;44.624;20.378;2023-12-20T15:15:08;4.70;88.52
69393;SHT31;56582;44.624;20.378;2023-12-20T15:17:35;4.75;88.64
69393;SHT31;56582;44.624;20.378;2023-12-20T15:20:01;5.07;87.73
69393;SHT31;56582;44.624;20.378;2023-12-20T15:22:27;4.84;88.08
69393;SHT31;56582;44.624;20.378;2023-12-20T15:24:53;4.96;88.64
69393;SHT31;56582;44.624;20.378;2023-12-20T15:27:20;5.16;87.50
69393;SHT31;56582;44.624;20.378;2023-12-20T15:29:45;5.08;87.49
69393;SHT31;56582;44.624;20.378;2023-12-20T15:32:11;4.90;88.66